sensor_id;sensor_type;location;lat;lon;timestamp;temperature;humidity
22666;DHT22;11499;49.486;11.104;2022-09-17T00:00:06;8.80;99.90
22666;DHT22;11499;49.486;11.104;2022-09-17T00:02:32;8.80;99.90
22666;DHT22;11499;49.486;11.104;2022-09-17T00:04:57;8.80;99.90
22666;DHT22;11499;49.486;11.104;2022-09-17T00:07:23;8.80;99.90
22666;DHT22;11499;49.486;11.104;2022-09-17T00:09:48;8.70;99.90
22666;DHT22;11499;49.486;11.104;2022-09-17T00:12:14;8.70;99.90
22666;DHT22;11499;49.486;11.104;2022-09-17T00:14:39;8.70;99.90
22666;DHT22;11499;49.486;11.104;2022-09-17T00:17:05;8.70;99.90
22666;DHT22;11499;49.486;11.104;2022-09-17T00:19:30;8.70;99.90
22666;DHT22;11499;49.486;11.104;2022-09-17T00:21:56;8.70;99.90
22666;DHT22;11499;49.486;11.104;2022-09-17T00:27:42;8.70;99.90
22666;DHT22;11499;49.486;11.104;2022-09-17T00:30:09;8.70;99.90
22666;DHT22;11499;49.486;11.104;2022-09-17T00:32:34;8.70;99.90
22666;DHT22;11499;49.486;11.104;2022-09-17T00:35:00;8.70;99.90
22666;DHT22;11499;49.486;11.104;2022-09-17T00:37:25;8.70;99.90
22666;DHT22;11499;49.486;11.104;2022-09-17T00:39:51;8.60;99.90
22666;DHT22;11499;49.486;11.104;2022-09-17T00:42:17;8.60;99.90
22666;DHT22;11499;49.486;11.104;2022-09-17T00:44:53;8.60;99.90
22666;DHT22;11499;49.486;11.104;2022-09-17T00:47:35;8.70;99.90
22666;DHT22;11499;49.486;11.104;2022-09-17T00:55:42;8.60;99.90
22666;DHT22;11499;49.486;11.104;2022-09-17T00:58:11;8.60;99.90
22666;DHT22;11499;49.486;11.104;2022-09-17T01:07:34;8.70;99.90
22666;DHT22;11499;49.486;11.104;2022-09-17T01:10:11;8.70;99.90
22666;DHT22;11499;49.486;11.104;2022-09-17T01:15:28;8.70;99.90
22666;DHT22;11499;49.486;11.104;2022-09-17T01:26:43;8.80;99.90
22666;DHT22;11499;49.486;11.104;2022-09-17T01:31:58;8.70;99.90
22666;DHT22;11499;49.486;11.104;2022-09-17T01:39:45;8.60;99.90
22666;DHT22;11499;49.486;11.104;2022-09-17T01:42:24;8.50;99.90
22666;DHT22;11499;49.486;11.104;2022-09-17T01:48:20;8.40;99.90
22666;DHT22;11499;49.486;11.104;2022-09-17T01:50:54;8.40;99.90
22666;DHT22;11499;49.486;11.104;2022-09-17T01:53:23;8.40;99.90
22666;DHT22;11499;49.486;11.104;2022-09-17T01:55:53;8.30;99.90
22666;DHT22;11499;49.486;11.104;2022-09-17T01:58:26;8.30;99.90
22666;DHT22;11499;49.486;11.104;2022-09-17T02:00:59;8.30;99.90
22666;DHT22;11499;49.486;11.104;2022-09-17T02:03:57;8.40;99.90
22666;DHT22;11499;49.486;11.104;2022-09-17T02:06:28;8.50;99.90
22666;DHT22;11499;49.486;11.104;2022-09-17T02:09:07;8.50;99.90
22666;DHT22;11499;49.486;11.104;2022-09-17T02:14:56;8.60;99.90
22666;DHT22;11499;49.486;11.104;2022-09-17T02:17:28;8.60;99.90
22666;DHT22;11499;49.486;11.104;2022-09-17T02:19:55;8.70;99.90
22666;DHT22;11499;49.486;11.104;2022-09-17T02:30:19;8.90;99.90
22666;DHT22;11499;49.486;11.104;2022-09-17T02:32:45;9.00;99.90
22666;DHT22;11499;49.486;11.104;2022-09-17T02:35:11;9.00;99.90
22666;DHT22;11499;49.486;11.104;2022-09-17T02:37:42;9.00;99.90
22666;DHT22;11499;49.486;11.104;2022-09-17T02:43:06;9.10;99.90
22666;DHT22;11499;49.486;11.104;2022-09-17T02:59:16;9.20;99.90
22666;DHT22;11499;49.486;11.104;2022-09-17T03:04:25;9.20;99.90
22666;DHT22;11499;49.486;11.104;2022-09-17T03:09:33;9.30;99.90
22666;DHT22;11499;49.486;11.104;2022-09-17T03:11:58;9.20;99.90
22666;DHT22;11499;49.486;11.104;2022-09-17T03:14:24;9.20;99.90
22666;DHT22;11499;49.486;11.104;2022-09-17T03:16:49;9.30;99.90
22666;DHT22;11499;49.486;11.104;2022-09-17T03:19:15;9.30;99.90
22666;DHT22;11499;49.486;11.104;2022-09-17T03:21:40;9.20;99.90
22666;DHT22;11499;49.486;11.104;2022-09-17T03:24:06;9.20;99.90
22666;DHT22;11499;49.486;11.104;2022-09-17T03:26:32;9.30;99.90
22666;DHT22;11499;49.486;11.104;2022-09-17T03:28:58;9.30;99.90
22666;DHT22;11499;49.486;11.104;2022-09-17T03:31:23;9.20;99.90
22666;DHT22;11499;49.486;11.104;2022-09-17T03:36:51;9.30;99.90
22666;DHT22;11499;49.486;11.104;2022-09-17T03:39:17;9.30;99.90
22666;DHT22;11499;49.486;11.104;2022-09-17T03:41:42;9.30;99.90
22666;DHT22;11499;49.486;11.104;2022-09-17T03:44:08;9.30;99.90
22666;DHT22;11499;49.486;11.104;2022-09-17T03:46:35;9.30;99.90
22666;DHT22;11499;49.486;11.104;2022-09-17T03:49:00;9.30;99.90
22666;DHT22;11499;49.486;11.104;2022-09-17T03:51:26;9.30;99.90
22666;DHT22;11499;49.486;11.104;2022-09-17T03:53:52;9.30;99.90
22666;DHT22;11499;49.486;11.104;2022-09-17T03:56:17;9.30;99.90
22666;DHT22;11499;49.486;11.104;2022-09-17T03:58:43;9.30;99.90
22666;DHT22;11499;49.486;11.104;2022-09-17T04:03:49;9.30;99.90
22666;DHT22;11499;49.486;11.104;2022-09-17T04:06:15;9.30;99.90
22666;DHT22;11499;49.486;11.104;2022-09-17T04:08:40;9.30;99.90
22666;DHT22;11499;49.486;11.104;2022-09-17T04:11:07;9.30;99.90
22666;DHT22;11499;49.486;11.104;2022-09-17T04:13:33;9.30;99.90
22666;DHT22;11499;49.486;11.104;2022-09-17T04:15:59;9.30;99.90
22666;DHT22;11499;49.486;11.104;2022-09-17T04:18:24;9.40;99.90
22666;DHT22;11499;49.486;11.104;2022-09-17T04:20:51;9.30;99.90
22666;DHT22;11499;49.486;11.104;2022-09-17T04:23:16;9.30;99.90
22666;DHT22;11499;49.486;11.104;2022-09-17T04:25:42;9.30;99.90
22666;DHT22;11499;49.486;11.104;2022-09-17T04:30:48;9.30;99.90
22666;DHT22;11499;49.486;11.104;2022-09-17T04:33:14;9.30;99.90
22666;DHT22;11499;49.486;11.104;2022-09-17T04:35:40;9.40;99.90
22666;DHT22;11499;49.486;11.104;2022-09-17T04:38:06;9.30;99.90
22666;DHT22;11499;49.486;11.104;2022-09-17T04:40:31;9.30;99.90
22666;DHT22;11499;49.486;11.104;2022-09-17T04:42:58;9.30;99.90
22666;DHT22;11499;49.486;11.104;2022-09-17T04:45:24;9.20;99.90
22666;DHT22;11499;49.486;11.104;2022-09-17T04:47:50;9.20;99.90
22666;DHT22;11499;49.486;11.104;2022-09-17T04:50:19;9.20;99.90
22666;DHT22;11499;49.486;11.104;2022-09-17T04:52:45;9.20;99.90
22666;DHT22;11499;49.486;11.104;2022-09-17T04:58:20;9.20;99.90
22666;DHT22;11499;49.486;11.104;2022-09-17T05:00:46;9.20;99.90
22666;DHT22;11499;49.486;11.104;2022-09-17T05:03:12;9.20;99.90
22666;DHT22;11499;49.486;11.104;2022-09-17T05:05:37;9.20;99.90
22666;DHT22;11499;49.486;11.104;2022-09-17T05:08:03;9.20;99.90
22666;DHT22;11499;49.486;11.104;2022-09-17T05:10:29;9.20;99.90
22666;DHT22;11499;49.486;11.104;2022-09-17T05:12:55;9.20;99.90
22666;DHT22;11499;49.486;11.104;2022-09-17T05:15:22;9.30;99.90
22666;DHT22;11499;49.486;11.104;2022-09-17T05:17:49;9.30;99.90
22666;DHT22;11499;49.486;11.104;2022-09-17T05:20:15;9.30;99.90
22666;DHT22;11499;49.486;11.104;2022-09-17T05:25:20;9.30;99.90
22666;DHT22;11499;49.486;11.104;2022-09-17T05:27:48;9.40;99.90
22666;DHT22;11499;49.486;11.104;2022-09-17T05:30:13;9.30;99.90
22666;DHT22;11499;49.486;11.104;2022-09-17T05:32:39;9.40;99.90
22666;DHT22;11499;49.486;11.104;2022-09-17T05:35:05;9.40;99.90
22666;DHT22;11499;49.486;11.104;2022-09-17T05:37:31;9.30;99.90
22666;DHT22;11499;49.486;11.104;2022-09-17T05:39:57;9.20;99.90
22666;DHT22;11499;49.486;11.104;2022-09-17T05:42:23;9.10;99.90
22666;DHT22;11499;49.486;11.104;2022-09-17T05:44:48;8.90;99.90
22666;DHT22;11499;49.486;11.104;2022-09-17T05:47:14;8.70;99.90
22666;DHT22;11499;49.486;11.104;2022-09-17T05:52:18;8.60;99.90
22666;DHT22;11499;49.486;11.104;2022-09-17T05:54:43;8.50;99.90
22666;DHT22;11499;49.486;11.104;2022-09-17T05:57:09;8.50;99.90
22666;DHT22;11499;49.486;11.104;2022-09-17T05:59:34;8.50;99.90
22666;DHT22;11499;49.486;11.104;2022-09-17T06:02:00;8.50;99.90
22666;DHT22;11499;49.486;11.104;2022-09-17T06:04:26;8.40;99.90
22666;DHT22;11499;49.486;11.104;2022-09-17T06:06:51;8.40;99.90
22666;DHT22;11499;49.486;11.104;2022-09-17T06:09:17;8.40;99.90
22666;DHT22;11499;49.486;11.104;2022-09-17T06:11:42;8.30;99.90
22666;DHT22;11499;49.486;11.104;2022-09-17T06:14:08;8.30;99.90
22666;DHT22;11499;49.486;11.104;2022-09-17T06:16:34;8.30;99.90
22666;DHT22;11499;49.486;11.104;2022-09-17T06:21:00;8.40;99.90
22666;DHT22;11499;49.486;11.104;2022-09-17T06:23:27;8.50;99.90
22666;DHT22;11499;49.486;11.104;2022-09-17T06:25:56;8.50;99.90
22666;DHT22;11499;49.486;11.104;2022-09-17T06:28:23;8.50;99.90
22666;DHT22;11499;49.486;11.104;2022-09-17T06:30:48;8.50;99.90
22666;DHT22;11499;49.486;11.104;2022-09-17T06:33:16;8.50;99.90
22666;DHT22;11499;49.486;11.104;2022-09-17T06:35:42;8.50;99.90
22666;DHT22;11499;49.486;11.104;2022-09-17T06:38:07;8.40;99.90
22666;DHT22;11499;49.486;11.104;2022-09-17T06:40:33;8.50;99.90
22666;DHT22;11499;49.486;11.104;2022-09-17T06:42:59;8.50;99.90
22666;DHT22;11499;49.486;11.104;2022-09-17T06:48:03;8.50;99.90
22666;DHT22;11499;49.486;11.104;2022-09-17T06:50:29;8.50;99.90
22666;DHT22;11499;49.486;11.104;2022-09-17T06:52:55;8.50;99.90
22666;DHT22;11499;49.486;11.104;2022-09-17T06:55:21;8.40;99.90
22666;DHT22;11499;49.486;11.104;2022-09-17T06:57:46;8.40;99.90
22666;DHT22;11499;49.486;11.104;2022-09-17T07:00:13;8.40;99.90
22666;DHT22;11499;49.486;11.104;2022-09-17T07:02:39;8.40;99.90
22666;DHT22;11499;49.486;11.104;2022-09-17T07:05:05;8.30;99.90
22666;DHT22;11499;49.486;11.104;2022-09-17T07:07:31;8.40;99.90
22666;DHT22;11499;49.486;11.104;2022-09-17T07:09:59;8.40;99.90
22666;DHT22;11499;49.486;11.104;2022-09-17T07:15:04;8.40;99.90
22666;DHT22;11499;49.486;11.104;2022-09-17T07:17:29;8.60;99.90
22666;DHT22;11499;49.486;11.104;2022-09-17T07:19:55;8.60;99.90
22666;DHT22;11499;49.486;11.104;2022-09-17T07:22:23;8.60;99.90
22666;DHT22;11499;49.486;11.104;2022-09-17T07:24:49;8.70;99.90
22666;DHT22;11499;49.486;11.104;2022-09-17T07:27:14;8.70;99.90
22666;DHT22;11499;49.486;11.104;2022-09-17T07:29:40;8.60;99.90
22666;DHT22;11499;49.486;11.104;2022-09-17T07:32:06;8.70;99.90
22666;DHT22;11499;49.486;11.104;2022-09-17T07:34:31;8.70;99.90
22666;DHT22;11499;49.486;11.104;2022-09-17T07:36:57;8.70;99.90
22666;DHT22;11499;49.486;11.104;2022-09-17T07:41:47;8.70;99.90
22666;DHT22;11499;49.486;11.104;2022-09-17T07:44:13;8.70;99.90
22666;DHT22;11499;49.486;11.104;2022-09-17T07:46:38;8.70;99.90
22666;DHT22;11499;49.486;11.104;2022-09-17T07:49:04;8.80;99.90
22666;DHT22;11499;49.486;11.104;2022-09-17T07:51:30;8.80;99.90
22666;DHT22;11499;49.486;11.104;2022-09-17T07:53:57;8.80;99.90
22666;DHT22;11499;49.486;11.104;2022-09-17T07:56:25;8.90;99.90
22666;DHT22;11499;49.486;11.104;2022-09-17T07:58:52;8.90;99.90
22666;DHT22;11499;49.486;11.104;2022-09-17T08:01:18;9.00;99.90
22666;DHT22;11499;49.486;11.104;2022-09-17T08:03:50;9.00;99.90
22666;DHT22;11499;49.486;11.104;2022-09-17T08:09:04;9.00;99.90
22666;DHT22;11499;49.486;11.104;2022-09-17T08:11:31;9.10;99.90
22666;DHT22;11499;49.486;11.104;2022-09-17T08:13:56;9.10;99.90
22666;DHT22;11499;49.486;11.104;2022-09-17T08:16:23;9.10;99.90
22666;DHT22;11499;49.486;11.104;2022-09-17T08:18:54;9.10;99.90
22666;DHT22;11499;49.486;11.104;2022-09-17T08:21:19;9.20;99.90
22666;DHT22;11499;49.486;11.104;2022-09-17T08:23:46;9.20;99.90
22666;DHT22;11499;49.486;11.104;2022-09-17T08:26:14;9.30;99.90
22666;DHT22;11499;49.486;11.104;2022-09-17T08:28:47;9.20;99.90
22666;DHT22;11499;49.486;11.104;2022-09-17T08:31:15;9.20;99.90
22666;DHT22;11499;49.486;11.104;2022-09-17T08:35:17;9.20;99.90
22666;DHT22;11499;49.486;11.104;2022-09-17T08:37:43;9.30;99.90
22666;DHT22;11499;49.486;11.104;2022-09-17T08:40:15;9.40;99.90
22666;DHT22;11499;49.486;11.104;2022-09-17T08:42:50;9.50;99.90
22666;DHT22;11499;49.486;11.104;2022-09-17T08:45:18;9.60;99.90
22666;DHT22;11499;49.486;11.104;2022-09-17T08:47:45;9.70;99.90
22666;DHT22;11499;49.486;11.104;2022-09-17T08:50:33;9.70;99.90
22666;DHT22;11499;49.486;11.104;2022-09-17T08:55:36;9.80;99.90
22666;DHT22;11499;49.486;11.104;2022-09-17T09:06:38;10.90;99.90
22666;DHT22;11499;49.486;11.104;2022-09-17T09:09:11;10.90;99.90
22666;DHT22;11499;49.486;11.104;2022-09-17T09:11:39;10.90;99.90
22666;DHT22;11499;49.486;11.104;2022-09-17T09:14:20;11.00;99.90
22666;DHT22;11499;49.486;11.104;2022-09-17T09:16:48;11.20;99.90
22666;DHT22;11499;49.486;11.104;2022-09-17T09:19:40;11.50;99.90
22666;DHT22;11499;49.486;11.104;2022-09-17T09:22:35;11.30;99.90
22666;DHT22;11499;49.486;11.104;2022-09-17T09:33:34;11.70;99.90
22666;DHT22;11499;49.486;11.104;2022-09-17T09:36:02;11.80;99.90
22666;DHT22;11499;49.486;11.104;2022-09-17T09:38:39;11.50;99.90
22666;DHT22;11499;49.486;11.104;2022-09-17T09:41:11;11.80;99.90
22666;DHT22;11499;49.486;11.104;2022-09-17T09:49:29;11.40;99.90
22666;DHT22;11499;49.486;11.104;2022-09-17T09:54:55;11.60;99.90
22666;DHT22;11499;49.486;11.104;2022-09-17T09:57:47;12.10;99.90
22666;DHT22;11499;49.486;11.104;2022-09-17T10:00:34;12.40;99.90
22666;DHT22;11499;49.486;11.104;2022-09-17T10:03:21;12.20;99.90
22666;DHT22;11499;49.486;11.104;2022-09-17T10:06:07;12.20;99.90
22666;DHT22;11499;49.486;11.104;2022-09-17T10:08:36;12.60;99.90
22666;DHT22;11499;49.486;11.104;2022-09-17T10:11:04;12.50;99.90
22666;DHT22;11499;49.486;11.104;2022-09-17T10:13:34;12.70;99.90
22666;DHT22;11499;49.486;11.104;2022-09-17T10:16:18;12.50;99.90
22666;DHT22;11499;49.486;11.104;2022-09-17T10:21:42;12.10;99.90
22666;DHT22;11499;49.486;11.104;2022-09-17T10:24:22;12.10;99.90
22666;DHT22;11499;49.486;11.104;2022-09-17T10:26:48;12.20;99.90
22666;DHT22;11499;49.486;11.104;2022-09-17T10:29:20;12.80;99.90
22666;DHT22;11499;49.486;11.104;2022-09-17T10:31:51;12.90;99.90
22666;DHT22;11499;49.486;11.104;2022-09-17T10:34:25;13.20;99.90
22666;DHT22;11499;49.486;11.104;2022-09-17T10:36:52;13.20;99.90
22666;DHT22;11499;49.486;11.104;2022-09-17T10:39:36;13.20;99.90
22666;DHT22;11499;49.486;11.104;2022-09-17T10:42:15;13.50;99.90
22666;DHT22;11499;49.486;11.104;2022-09-17T10:52:31;13.70;99.90
22666;DHT22;11499;49.486;11.104;2022-09-17T10:55:06;13.60;99.90
22666;DHT22;11499;49.486;11.104;2022-09-17T10:57:43;13.50;99.90
22666;DHT22;11499;49.486;11.104;2022-09-17T11:00:19;13.10;99.90
22666;DHT22;11499;49.486;11.104;2022-09-17T11:11:37;12.70;99.90
22666;DHT22;11499;49.486;11.104;2022-09-17T11:16:10;12.70;99.90
22666;DHT22;11499;49.486;11.104;2022-09-17T11:18:48;12.70;99.90
22666;DHT22;11499;49.486;11.104;2022-09-17T11:21:39;12.50;99.90
22666;DHT22;11499;49.486;11.104;2022-09-17T11:30:09;12.50;99.90
22666;DHT22;11499;49.486;11.104;2022-09-17T11:35:25;13.00;99.90
22666;DHT22;11499;49.486;11.104;2022-09-17T11:46:12;13.80;99.90
22666;DHT22;11499;49.486;11.104;2022-09-17T11:48:46;13.80;99.90
22666;DHT22;11499;49.486;11.104;2022-09-17T11:51:26;13.60;99.90
22666;DHT22;11499;49.486;11.104;2022-09-17T11:54:15;13.40;99.90
22666;DHT22;11499;49.486;11.104;2022-09-17T11:56:46;13.50;99.90
22666;DHT22;11499;49.486;11.104;2022-09-17T12:01:59;14.00;99.90
22666;DHT22;11499;49.486;11.104;2022-09-17T12:07:30;14.50;99.90
22666;DHT22;11499;49.486;11.104;2022-09-17T12:16:23;12.50;99.90
22666;DHT22;11499;49.486;11.104;2022-09-17T12:19:01;11.10;99.90
22666;DHT22;11499;49.486;11.104;2022-09-17T12:21:39;11.00;99.90
22666;DHT22;11499;49.486;11.104;2022-09-17T12:26:58;11.10;99.90
22666;DHT22;11499;49.486;11.104;2022-09-17T12:32:58;11.40;99.90
22666;DHT22;11499;49.486;11.104;2022-09-17T12:49:18;13.10;99.90
22666;DHT22;11499;49.486;11.104;2022-09-17T12:51:56;13.20;99.90
22666;DHT22;11499;49.486;11.104;2022-09-17T13:00:18;13.40;99.90
22666;DHT22;11499;49.486;11.104;2022-09-17T13:02:55;13.40;99.90
22666;DHT22;11499;49.486;11.104;2022-09-17T13:08:23;12.90;99.90
22666;DHT22;11499;49.486;11.104;2022-09-17T13:14:11;13.50;99.90
22666;DHT22;11499;49.486;11.104;2022-09-17T13:24:32;13.70;99.90
22666;DHT22;11499;49.486;11.104;2022-09-17T13:27:01;13.40;99.90
22666;DHT22;11499;49.486;11.104;2022-09-17T13:29:59;13.10;99.90
22666;DHT22;11499;49.486;11.104;2022-09-17T13:37:57;10.60;99.90
22666;DHT22;11499;49.486;11.104;2022-09-17T13:40:25;8.70;99.90
22666;DHT22;11499;49.486;11.104;2022-09-17T13:42:54;8.20;99.90
22666;DHT22;11499;49.486;11.104;2022-09-17T13:48:18;7.80;99.90
22666;DHT22;11499;49.486;11.104;2022-09-17T13:50:43;7.60;99.90
22666;DHT22;11499;49.486;11.104;2022-09-17T13:55:50;7.80;99.90
22666;DHT22;11499;49.486;11.104;2022-09-17T14:14:53;8.80;99.90
22666;DHT22;11499;49.486;11.104;2022-09-17T14:17:54;8.90;99.90
22666;DHT22;11499;49.486;11.104;2022-09-17T14:20:20;9.00;99.90
22666;DHT22;11499;49.486;11.104;2022-09-17T14:22:57;9.20;99.90
22666;DHT22;11499;49.486;11.104;2022-09-17T14:25:36;9.10;99.90
22666;DHT22;11499;49.486;11.104;2022-09-17T14:28:28;9.30;99.90
22666;DHT22;11499;49.486;11.104;2022-09-17T14:30:56;9.50;99.90
22666;DHT22;11499;49.486;11.104;2022-09-17T14:33:26;9.70;99.90
22666;DHT22;11499;49.486;11.104;2022-09-17T14:35:58;9.80;99.90
22666;DHT22;11499;49.486;11.104;2022-09-17T14:41:06;9.80;99.90
22666;DHT22;11499;49.486;11.104;2022-09-17T14:46:26;10.20;99.90
22666;DHT22;11499;49.486;11.104;2022-09-17T14:48:52;10.40;99.90
22666;DHT22;11499;49.486;11.104;2022-09-17T14:53:44;10.70;99.90
22666;DHT22;11499;49.486;11.104;2022-09-17T14:56:12;10.80;99.90
22666;DHT22;11499;49.486;11.104;2022-09-17T14:58:46;10.90;99.90
22666;DHT22;11499;49.486;11.104;2022-09-17T15:01:27;10.90;99.90
22666;DHT22;11499;49.486;11.104;2022-09-17T15:06:29;11.10;99.90
22666;DHT22;11499;49.486;11.104;2022-09-17T15:08:56;11.20;99.90
22666;DHT22;11499;49.486;11.104;2022-09-17T15:11:22;11.30;99.90
22666;DHT22;11499;49.486;11.104;2022-09-17T15:13:50;11.40;99.90
22666;DHT22;11499;49.486;11.104;2022-09-17T15:16:24;11.40;99.90
22666;DHT22;11499;49.486;11.104;2022-09-17T15:18:57;11.50;99.90
22666;DHT22;11499;49.486;11.104;2022-09-17T15:21:41;11.50;99.90
22666;DHT22;11499;49.486;11.104;2022-09-17T15:24:31;11.60;99.90
22666;DHT22;11499;49.486;11.104;2022-09-17T15:27:04;11.80;99.90
22666;DHT22;11499;49.486;11.104;2022-09-17T15:29:33;11.90;99.90
22666;DHT22;11499;49.486;11.104;2022-09-17T15:33:45;12.00;99.90
22666;DHT22;11499;49.486;11.104;2022-09-17T15:36:19;12.00;99.90
22666;DHT22;11499;49.486;11.104;2022-09-17T15:38:45;12.20;99.90
22666;DHT22;11499;49.486;11.104;2022-09-17T15:41:33;12.40;99.90
22666;DHT22;11499;49.486;11.104;2022-09-17T15:44:20;12.60;99.90
22666;DHT22;11499;49.486;11.104;2022-09-17T15:46:47;13.10;99.90
22666;DHT22;11499;49.486;11.104;2022-09-17T15:49:29;13.00;99.90
22666;DHT22;11499;49.486;11.104;2022-09-17T15:51:58;13.00;99.90
22666;DHT22;11499;49.486;11.104;2022-09-17T15:54:40;13.10;99.90
22666;DHT22;11499;49.486;11.104;2022-09-17T15:57:13;13.30;99.90
22666;DHT22;11499;49.486;11.104;2022-09-17T16:02:29;13.10;99.90
22666;DHT22;11499;49.486;11.104;2022-09-17T16:07:49;12.90;99.90
22666;DHT22;11499;49.486;11.104;2022-09-17T16:10:15;12.90;99.90
22666;DHT22;11499;49.486;11.104;2022-09-17T16:12:41;12.90;99.90
22666;DHT22;11499;49.486;11.104;2022-09-17T16:15:07;12.90;99.90
22666;DHT22;11499;49.486;11.104;2022-09-17T16:20:21;12.80;99.90
22666;DHT22;11499;49.486;11.104;2022-09-17T16:22:51;12.80;99.90
22666;DHT22;11499;49.486;11.104;2022-09-17T16:28:12;12.60;99.90
22666;DHT22;11499;49.486;11.104;2022-09-17T16:30:46;12.50;99.90
22666;DHT22;11499;49.486;11.104;2022-09-17T16:33:14;12.50;99.90
22666;DHT22;11499;49.486;11.104;2022-09-17T16:35:40;12.40;99.90
22666;DHT22;11499;49.486;11.104;2022-09-17T16:38:06;12.30;99.90
22666;DHT22;11499;49.486;11.104;2022-09-17T16:40:32;12.20;99.90
22666;DHT22;11499;49.486;11.104;2022-09-17T16:43:02;12.20;99.90
22666;DHT22;11499;49.486;11.104;2022-09-17T16:45:28;12.20;99.90
22666;DHT22;11499;49.486;11.104;2022-09-17T16:47:54;12.20;99.90
22666;DHT22;11499;49.486;11.104;2022-09-17T16:50:20;12.20;99.90
22666;DHT22;11499;49.486;11.104;2022-09-17T16:56:14;12.10;99.90
22666;DHT22;11499;49.486;11.104;2022-09-17T16:58:40;11.80;99.90
22666;DHT22;11499;49.486;11.104;2022-09-17T17:01:09;11.40;99.90
22666;DHT22;11499;49.486;11.104;2022-09-17T17:03:35;10.90;99.90
22666;DHT22;11499;49.486;11.104;2022-09-17T17:06:01;10.50;99.90
22666;DHT22;11499;49.486;11.104;2022-09-17T17:08:27;10.20;99.90
22666;DHT22;11499;49.486;11.104;2022-09-17T17:10:53;9.80;99.90
22666;DHT22;11499;49.486;11.104;2022-09-17T17:13:18;9.50;99.90
22666;DHT22;11499;49.486;11.104;2022-09-17T17:15:44;9.50;99.90
22666;DHT22;11499;49.486;11.104;2022-09-17T17:18:09;9.50;99.90
22666;DHT22;11499;49.486;11.104;2022-09-17T17:20:35;9.50;99.90
22666;DHT22;11499;49.486;11.104;2022-09-17T17:25:14;9.60;99.90
22666;DHT22;11499;49.486;11.104;2022-09-17T17:27:40;9.60;99.90
22666;DHT22;11499;49.486;11.104;2022-09-17T17:30:07;9.70;99.90
22666;DHT22;11499;49.486;11.104;2022-09-17T17:32:34;9.80;99.90
22666;DHT22;11499;49.486;11.104;2022-09-17T17:35:00;9.80;99.90
22666;DHT22;11499;49.486;11.104;2022-09-17T17:37:26;9.80;99.90
22666;DHT22;11499;49.486;11.104;2022-09-17T17:39:52;9.80;99.90
22666;DHT22;11499;49.486;11.104;2022-09-17T17:42:19;9.70;99.90
22666;DHT22;11499;49.486;11.104;2022-09-17T17:44:44;9.60;99.90
22666;DHT22;11499;49.486;11.104;2022-09-17T17:47:11;9.50;99.90
22666;DHT22;11499;49.486;11.104;2022-09-17T17:51:46;9.50;99.90
22666;DHT22;11499;49.486;11.104;2022-09-17T17:54:12;9.40;99.90
22666;DHT22;11499;49.486;11.104;2022-09-17T17:56:37;9.30;99.90
22666;DHT22;11499;49.486;11.104;2022-09-17T17:59:03;9.30;99.90
22666;DHT22;11499;49.486;11.104;2022-09-17T18:01:29;9.30;99.90
22666;DHT22;11499;49.486;11.104;2022-09-17T18:03:57;9.30;99.90
22666;DHT22;11499;49.486;11.104;2022-09-17T18:06:24;9.40;99.90
22666;DHT22;11499;49.486;11.104;2022-09-17T18:08:50;9.30;99.90
22666;DHT22;11499;49.486;11.104;2022-09-17T18:11:16;9.30;99.90
22666;DHT22;11499;49.486;11.104;2022-09-17T18:13:41;9.20;99.90
22666;DHT22;11499;49.486;11.104;2022-09-17T18:17:28;9.10;99.90
22666;DHT22;11499;49.486;11.104;2022-09-17T18:19:54;9.00;99.90
22666;DHT22;11499;49.486;11.104;2022-09-17T18:22:20;9.00;99.90
22666;DHT22;11499;49.486;11.104;2022-09-17T18:24:46;9.00;99.90
22666;DHT22;11499;49.486;11.104;2022-09-17T18:27:11;8.90;99.90
22666;DHT22;11499;49.486;11.104;2022-09-17T18:29:37;8.90;99.90
22666;DHT22;11499;49.486;11.104;2022-09-17T18:32:03;8.80;99.90
22666;DHT22;11499;49.486;11.104;2022-09-17T18:34:29;8.80;99.90
22666;DHT22;11499;49.486;11.104;2022-09-17T18:36:54;8.60;99.90
22666;DHT22;11499;49.486;11.104;2022-09-17T18:39:20;8.60;99.90
22666;DHT22;11499;49.486;11.104;2022-09-17T18:44:49;8.60;99.90
22666;DHT22;11499;49.486;11.104;2022-09-17T18:47:15;8.50;99.90
22666;DHT22;11499;49.486;11.104;2022-09-17T18:49:41;8.50;99.90
22666;DHT22;11499;49.486;11.104;2022-09-17T18:52:07;8.50;99.90
22666;DHT22;11499;49.486;11.104;2022-09-17T18:54:32;8.50;99.90
22666;DHT22;11499;49.486;11.104;2022-09-17T18:56:58;8.50;99.90
22666;DHT22;11499;49.486;11.104;2022-09-17T18:59:23;8.50;99.90
22666;DHT22;11499;49.486;11.104;2022-09-17T19:01:49;8.50;99.90
22666;DHT22;11499;49.486;11.104;2022-09-17T19:04:14;8.50;99.90
22666;DHT22;11499;49.486;11.104;2022-09-17T19:06:40;8.50;99.90
22666;DHT22;11499;49.486;11.104;2022-09-17T19:11:17;8.50;99.90
22666;DHT22;11499;49.486;11.104;2022-09-17T19:13:46;8.40;99.90
22666;DHT22;11499;49.486;11.104;2022-09-17T19:16:14;8.40;99.90
22666;DHT22;11499;49.486;11.104;2022-09-17T19:18:40;8.40;99.90
22666;DHT22;11499;49.486;11.104;2022-09-17T19:21:09;8.40;99.90
22666;DHT22;11499;49.486;11.104;2022-09-17T19:23:42;8.40;99.90
22666;DHT22;11499;49.486;11.104;2022-09-17T19:26:11;8.40;99.90
22666;DHT22;11499;49.486;11.104;2022-09-17T19:28:37;8.40;99.90
22666;DHT22;11499;49.486;11.104;2022-09-17T19:31:11;8.40;99.90
22666;DHT22;11499;49.486;11.104;2022-09-17T19:36:36;8.50;99.90
22666;DHT22;11499;49.486;11.104;2022-09-17T19:39:01;8.50;99.90
22666;DHT22;11499;49.486;11.104;2022-09-17T19:41:27;8.50;99.90
22666;DHT22;11499;49.486;11.104;2022-09-17T19:43:53;8.50;99.90
22666;DHT22;11499;49.486;11.104;2022-09-17T19:46:21;8.50;99.90
22666;DHT22;11499;49.486;11.104;2022-09-17T19:48:56;8.40;99.90
22666;DHT22;11499;49.486;11.104;2022-09-17T19:51:24;8.50;99.90
22666;DHT22;11499;49.486;11.104;2022-09-17T19:53:51;8.40;99.90
22666;DHT22;11499;49.486;11.104;2022-09-17T19:56:19;8.40;99.90
22666;DHT22;11499;49.486;11.104;2022-09-17T19:58:45;8.50;99.90
22666;DHT22;11499;49.486;11.104;2022-09-17T20:03:48;8.50;99.90
22666;DHT22;11499;49.486;11.104;2022-09-17T20:06:15;8.60;99.90
22666;DHT22;11499;49.486;11.104;2022-09-17T20:08:49;8.60;99.90
22666;DHT22;11499;49.486;11.104;2022-09-17T20:11:16;8.60;99.90
22666;DHT22;11499;49.486;11.104;2022-09-17T20:13:42;8.70;99.90
22666;DHT22;11499;49.486;11.104;2022-09-17T20:16:34;8.70;99.90
22666;DHT22;11499;49.486;11.104;2022-09-17T20:19:00;8.60;99.90
22666;DHT22;11499;49.486;11.104;2022-09-17T20:21:27;8.60;99.90
22666;DHT22;11499;49.486;11.104;2022-09-17T20:23:54;8.70;99.90
22666;DHT22;11499;49.486;11.104;2022-09-17T20:26:21;8.70;99.90
22666;DHT22;11499;49.486;11.104;2022-09-17T20:31:06;8.70;99.90
22666;DHT22;11499;49.486;11.104;2022-09-17T20:33:33;8.70;99.90